createdAt,value
2018-12-19T00:01:23.273Z,5.20
2018-12-19T00:03:29.869Z,5.10
2018-12-19T00:05:37.021Z,5.20
2018-12-19T00:07:43.789Z,5.10
2018-12-19T00:09:50.601Z,5.00
2018-12-19T00:11:56.238Z,5.20
2018-12-19T00:14:02.392Z,5.10
2018-12-19T00:16:09.070Z,5.20
2018-12-19T00:18:16.650Z,5.20
2018-12-19T00:20:28.325Z,5.10
2018-12-19T00:22:34.990Z,5.20
2018-12-19T00:24:42.310Z,5.10
2018-12-19T00:26:46.941Z,5.20
2018-12-19T00:28:51.531Z,5.20
2018-12-19T00:30:56.275Z,5.20
2018-12-19T00:33:02.709Z,5.20
2018-12-19T00:35:08.205Z,5.20
2018-12-19T00:37:14.542Z,5.10
2018-12-19T00:39:22.156Z,5.20
2018-12-19T00:41:29.161Z,5.20
2018-12-19T00:43:35.533Z,5.30
2018-12-19T00:45:39.591Z,5.30
2018-12-19T00:47:47.786Z,5.30
2018-12-19T00:49:53.827Z,5.30
2018-12-19T00:52:00.010Z,5.30
2018-12-19T00:54:05.803Z,5.20
2018-12-19T00:56:11.065Z,5.20
2018-12-19T00:58:15.390Z,5.10
2018-12-19T01:00:19.797Z,5.10
2018-12-19T01:02:24.273Z,5.10
2018-12-19T01:04:28.602Z,5.00
2018-12-19T01:06:33.669Z,5.10
2018-12-19T01:08:41.141Z,4.90
2018-12-19T01:10:48.397Z,5.00
2018-12-19T01:12:55.050Z,5.00
2018-12-19T01:15:01.929Z,4.90
2018-12-19T01:17:12.454Z,5.00
2018-12-19T01:19:20.169Z,4.90
2018-12-19T01:21:27.297Z,5.00
2018-12-19T01:23:37.408Z,5.00
2018-12-19T01:25:44.906Z,4.90
2018-12-19T01:27:50.788Z,4.90
2018-12-19T01:29:58.026Z,4.90
2018-12-19T01:32:04.938Z,4.90
2018-12-19T01:34:12.426Z,4.80
2018-12-19T01:36:19.326Z,4.80
2018-12-19T01:38:26.355Z,4.70
2018-12-19T01:40:32.947Z,4.80
2018-12-19T01:42:38.433Z,4.80
2018-12-19T01:44:44.742Z,4.70
2018-12-19T01:46:51.255Z,4.80
2018-12-19T01:48:58.220Z,4.70
2018-12-19T01:51:04.785Z,4.60
2018-12-19T01:53:11.753Z,4.80
2018-12-19T01:55:17.677Z,4.80
2018-12-19T01:57:23.433Z,4.80
2018-12-19T01:59:29.014Z,4.80
2018-12-19T02:01:34.730Z,4.80
2018-12-19T02:03:40.253Z,4.90
2018-12-19T02:05:46.637Z,4.90
2018-12-19T02:07:54.046Z,4.90
2018-12-19T02:10:00.687Z,5.00
2018-12-19T02:12:07.662Z,4.90
2018-12-19T02:14:14.764Z,4.90
2018-12-19T02:16:23.146Z,5.00
2018-12-19T02:18:28.949Z,5.00
2018-12-19T02:20:35.401Z,5.00
2018-12-19T02:22:42.511Z,4.90
2018-12-19T02:24:49.418Z,4.90
2018-12-19T02:26:56.118Z,4.90
2018-12-19T02:29:01.705Z,4.90
2018-12-19T02:31:09.023Z,5.00
2018-12-19T02:33:15.103Z,5.00
2018-12-19T02:35:20.814Z,5.00
2018-12-19T02:37:27.901Z,5.00
2018-12-19T02:39:36.139Z,4.90
2018-12-19T02:41:39.785Z,5.00
2018-12-19T02:43:43.946Z,5.00
2018-12-19T02:45:48.795Z,4.80
2018-12-19T02:47:56.185Z,4.90
2018-12-19T02:50:00.926Z,4.90
2018-12-19T02:52:05.506Z,5.00
2018-12-19T02:54:09.789Z,4.90
2018-12-19T02:56:16.075Z,4.90
2018-12-19T02:58:21.747Z,5.00
2018-12-19T03:00:28.174Z,5.00
2018-12-19T03:02:35.149Z,5.00
2018-12-19T03:04:41.643Z,4.90
2018-12-19T03:06:47.209Z,5.00
2018-12-19T03:08:55.243Z,5.00
2018-12-19T03:11:01.046Z,5.00
2018-12-19T03:13:08.749Z,4.80
2018-12-19T03:15:14.794Z,5.00
2018-12-19T03:17:21.737Z,5.00
2018-12-19T03:19:27.173Z,5.00
2018-12-19T03:21:33.230Z,5.00
2018-12-19T03:23:40.010Z,5.00
2018-12-19T03:25:46.325Z,5.10
2018-12-19T03:27:52.177Z,5.00
2018-12-19T03:29:57.394Z,5.00
2018-12-19T03:32:04.026Z,4.90
2018-12-19T03:34:10.798Z,5.00
2018-12-19T03:36:20.429Z,4.90
2018-12-19T03:38:27.476Z,4.90
2018-12-19T03:40:33.134Z,4.90
2018-12-19T03:42:39.659Z,5.00
2018-12-19T03:44:45.277Z,4.90
2018-12-19T03:46:51.445Z,4.80
2018-12-19T03:48:58.092Z,4.90
2018-12-19T03:51:04.170Z,4.80
2018-12-19T03:53:10.321Z,4.90
2018-12-19T03:55:17.294Z,4.90
2018-12-19T03:57:24.094Z,4.80
2018-12-19T03:59:30.378Z,4.90
2018-12-19T04:01:37.493Z,4.80
2018-12-19T04:03:42.949Z,4.80
2018-12-19T04:05:48.761Z,4.90
2018-12-19T04:07:55.694Z,4.70
2018-12-19T04:10:02.683Z,4.90
2018-12-19T04:12:09.056Z,4.70
2018-12-19T04:14:15.978Z,4.90
2018-12-19T04:16:22.228Z,4.90
2018-12-19T04:18:28.431Z,4.90
2018-12-19T04:20:35.317Z,4.80
2018-12-19T04:22:41.541Z,4.90
2018-12-19T04:24:48.157Z,4.90
2018-12-19T04:26:55.210Z,4.90
2018-12-19T04:29:02.262Z,4.80
2018-12-19T04:31:09.582Z,4.90
2018-12-19T04:33:15.656Z,4.90
2018-12-19T04:35:22.257Z,5.00
2018-12-19T04:37:28.322Z,4.90
2018-12-19T04:39:34.325Z,4.90
2018-12-19T04:41:41.171Z,5.00
2018-12-19T04:43:49.357Z,4.90
2018-12-19T04:45:56.430Z,4.80
2018-12-19T04:48:02.388Z,5.00
2018-12-19T04:50:08.689Z,4.90
2018-12-19T04:52:13.604Z,4.80
2018-12-19T04:54:17.393Z,4.90
2018-12-19T04:56:22.624Z,4.80
2018-12-19T04:58:29.418Z,4.90
2018-12-19T05:00:37.974Z,4.90
2018-12-19T05:02:43.381Z,4.80
2018-12-19T05:04:50.891Z,4.80
2018-12-19T05:07:00.013Z,4.90
2018-12-19T05:09:08.813Z,5.00
2018-12-19T05:11:15.305Z,4.90
2018-12-19T05:13:22.535Z,4.90
2018-12-19T05:15:30.801Z,5.00
2018-12-19T05:17:36.827Z,5.00
2018-12-19T05:19:42.820Z,5.00
2018-12-19T05:21:48.778Z,5.00
2018-12-19T05:23:55.099Z,4.90
2018-12-19T05:26:01.629Z,5.00
2018-12-19T05:28:06.217Z,5.00
2018-12-19T05:30:13.706Z,5.00
2018-12-19T05:32:19.797Z,5.10
2018-12-19T05:34:26.103Z,5.10
2018-12-19T05:36:32.494Z,5.00
2018-12-19T05:38:39.706Z,5.10
2018-12-19T05:40:46.486Z,5.10
2018-12-19T05:42:53.503Z,5.10
2018-12-19T05:44:58.767Z,5.10
2018-12-19T05:47:04.905Z,5.10
2018-12-19T05:49:11.847Z,5.10
2018-12-19T05:51:19.082Z,5.10
2018-12-19T05:53:26.125Z,5.00
2018-12-19T05:55:31.340Z,5.20
2018-12-19T05:57:38.826Z,5.20
2018-12-19T05:59:45.769Z,5.20
2018-12-19T06:01:52.746Z,5.20
2018-12-19T06:03:58.793Z,5.20
2018-12-19T06:06:04.078Z,5.20
2018-12-19T06:08:13.648Z,5.20
2018-12-19T06:10:26.027Z,5.10
2018-12-19T06:12:29.009Z,5.20
2018-12-19T06:14:36.022Z,5.20
2018-12-19T06:16:44.617Z,5.20
2018-12-19T06:18:50.729Z,5.20
2018-12-19T06:20:58.057Z,5.20
2018-12-19T06:23:04.910Z,5.20
2018-12-19T06:25:12.008Z,5.20
2018-12-19T06:27:18.317Z,5.20
2018-12-19T06:29:23.197Z,5.20
2018-12-19T06:31:30.033Z,5.10
2018-12-19T06:33:37.322Z,5.20
2018-12-19T06:35:43.324Z,5.10
2018-12-19T06:37:49.802Z,5.10
2018-12-19T06:39:55.529Z,5.10
2018-12-19T06:42:00.321Z,5.10
2018-12-19T06:44:06.651Z,5.10
2018-12-19T06:46:14.070Z,5.10
2018-12-19T06:48:20.265Z,5.00
2018-12-19T06:50:25.834Z,5.10
2018-12-19T06:52:32.187Z,5.10
2018-12-19T06:54:37.941Z,5.00
2018-12-19T06:56:44.394Z,5.10
2018-12-19T06:58:48.682Z,5.00
2018-12-19T07:00:53.326Z,5.00
2018-12-19T07:02:58.251Z,5.00
2018-12-19T07:05:05.234Z,4.90
2018-12-19T07:07:11.401Z,4.90
2018-12-19T07:09:18.538Z,4.90
2018-12-19T07:11:24.965Z,4.90
2018-12-19T07:13:31.327Z,4.90
2018-12-19T07:15:40.105Z,4.90
2018-12-19T07:17:48.159Z,4.80
2018-12-19T07:19:55.252Z,4.90
2018-12-19T07:22:01.019Z,4.80
2018-12-19T07:24:07.498Z,4.80
2018-12-19T07:26:12.997Z,4.80
2018-12-19T07:28:19.658Z,4.80
2018-12-19T07:30:26.734Z,4.90
2018-12-19T07:32:34.035Z,4.80
2018-12-19T07:34:44.144Z,4.90
2018-12-19T07:36:47.181Z,4.90
2018-12-19T07:38:56.087Z,4.80
2018-12-19T07:41:02.590Z,4.90
2018-12-19T07:43:06.981Z,4.90
2018-12-19T07:45:13.093Z,4.90
2018-12-19T07:47:19.631Z,4.90
2018-12-19T07:49:25.979Z,4.90
2018-12-19T07:51:32.142Z,5.00
2018-12-19T07:53:39.405Z,4.90
2018-12-19T07:55:44.751Z,5.00
2018-12-19T07:57:51.342Z,5.00
2018-12-19T07:59:56.415Z,5.00
2018-12-19T08:02:02.831Z,5.10
2018-12-19T08:04:09.327Z,5.10
2018-12-19T08:06:16.046Z,5.10
2018-12-19T08:08:22.411Z,5.20
2018-12-19T08:10:28.212Z,5.20
2018-12-19T08:12:36.179Z,5.20
2018-12-19T08:14:42.147Z,5.20
2018-12-19T08:16:51.413Z,5.30
2018-12-19T08:18:57.794Z,5.30
2018-12-19T08:21:03.694Z,5.30
2018-12-19T08:23:10.088Z,5.40
2018-12-19T08:25:15.746Z,5.40
2018-12-19T08:27:24.802Z,5.40
2018-12-19T08:29:30.429Z,5.40
2018-12-19T08:31:36.349Z,5.40
2018-12-19T08:33:44.085Z,5.40
2018-12-19T08:35:51.500Z,5.40
2018-12-19T08:38:02.091Z,5.50
2018-12-19T08:40:09.673Z,5.50
2018-12-19T08:42:16.015Z,5.40
2018-12-19T08:44:24.419Z,5.50
2018-12-19T08:46:32.458Z,5.50
2018-12-19T08:48:39.018Z,5.50
2018-12-19T08:50:44.967Z,5.50
2018-12-19T08:52:50.862Z,5.50
2018-12-19T08:54:55.454Z,5.50
2018-12-19T08:57:00.122Z,5.60
2018-12-19T08:59:05.833Z,5.50
2018-12-19T09:01:12.165Z,5.50
2018-12-19T09:03:16.657Z,5.50
2018-12-19T09:05:22.219Z,5.50
2018-12-19T09:07:28.558Z,5.50
2018-12-19T09:09:37.321Z,5.50
2018-12-19T09:11:44.138Z,5.50
2018-12-19T09:13:52.746Z,5.50
2018-12-19T09:16:02.917Z,5.50
2018-12-19T09:18:09.358Z,5.50
2018-12-19T09:20:14.427Z,5.50
2018-12-19T09:22:21.358Z,5.50
2018-12-19T09:24:27.349Z,5.50
2018-12-19T09:26:31.639Z,5.40
2018-12-19T09:28:37.103Z,5.50
2018-12-19T09:30:43.806Z,5.60
2018-12-19T09:32:49.618Z,5.50
2018-12-19T09:34:55.789Z,5.60
2018-12-19T09:37:01.177Z,5.50
2018-12-19T09:39:08.138Z,5.60
2018-12-19T09:41:13.134Z,5.40
2018-12-19T09:43:17.766Z,5.50
2018-12-19T09:45:21.838Z,5.50
2018-12-19T09:47:26.209Z,5.50
2018-12-19T09:49:33.034Z,5.50
2018-12-19T09:51:39.781Z,5.40
2018-12-19T09:53:46.669Z,5.30
2018-12-19T09:55:52.213Z,5.50
2018-12-19T09:57:58.570Z,5.40
2018-12-19T10:00:03.989Z,5.30
2018-12-19T10:02:13.977Z,5.40
2018-12-19T10:04:20.553Z,5.20
2018-12-19T10:06:24.334Z,5.30
2018-12-19T10:08:28.974Z,5.30
2018-12-19T10:10:37.398Z,5.30
2018-12-19T10:12:42.921Z,5.30
2018-12-19T10:14:47.531Z,5.30
2018-12-19T10:16:54.482Z,5.30
2018-12-19T10:19:00.330Z,5.30
2018-12-19T10:21:06.815Z,5.40
2018-12-19T10:23:12.458Z,5.30
2018-12-19T10:25:16.886Z,5.30
2018-12-19T10:27:21.836Z,5.20
2018-12-19T10:29:25.981Z,5.30
2018-12-19T10:31:32.045Z,5.20
2018-12-19T10:33:36.665Z,5.30
2018-12-19T10:35:41.521Z,5.20
2018-12-19T10:37:47.514Z,5.20
2018-12-19T10:39:55.264Z,5.30
2018-12-19T10:42:01.237Z,5.30
2018-12-19T10:44:07.230Z,5.20
2018-12-19T10:46:11.547Z,5.30
2018-12-19T10:48:20.682Z,5.30
2018-12-19T10:50:27.101Z,5.30
2018-12-19T10:52:33.941Z,5.30
2018-12-19T10:54:41.737Z,5.40
2018-12-19T10:56:51.786Z,5.30
2018-12-19T10:58:57.013Z,5.30
2018-12-19T11:01:04.011Z,5.30
2018-12-19T11:03:14.912Z,5.30
2018-12-19T11:05:21.964Z,5.20
2018-12-19T11:07:27.853Z,5.30
2018-12-19T11:09:33.206Z,5.30
2018-12-19T11:11:39.602Z,5.30
2018-12-19T11:13:46.945Z,5.20
2018-12-19T11:15:53.322Z,5.20
2018-12-19T11:17:58.689Z,5.20
2018-12-19T11:20:05.835Z,5.30
2018-12-19T11:22:12.911Z,5.20
2018-12-19T11:24:19.823Z,5.20
2018-12-19T11:26:27.359Z,5.20
2018-12-19T11:28:32.145Z,5.20
2018-12-19T11:30:36.421Z,5.20
2018-12-19T11:32:41.965Z,5.20
2018-12-19T11:34:47.285Z,5.20
2018-12-19T11:36:51.901Z,5.20
2018-12-19T11:38:56.144Z,5.20
2018-12-19T11:41:00.535Z,5.10
2018-12-19T11:43:05.152Z,5.20
2018-12-19T11:45:11.698Z,5.10
2018-12-19T11:47:17.489Z,5.20
2018-12-19T11:49:26.500Z,5.00
2018-12-19T11:51:33.391Z,5.10
2018-12-19T11:53:40.204Z,5.10
2018-12-19T11:55:46.316Z,5.10
2018-12-19T11:57:53.386Z,5.10
2018-12-19T11:59:57.909Z,5.10
2018-12-19T12:02:02.986Z,5.10
2018-12-19T12:04:09.641Z,5.00
2018-12-19T12:06:18.256Z,4.90
2018-12-19T12:08:23.583Z,5.10
2018-12-19T12:10:30.311Z,5.00
2018-12-19T12:12:36.173Z,5.00
2018-12-19T12:14:42.474Z,5.00
2018-12-19T12:16:48.646Z,4.90
2018-12-19T12:18:54.571Z,5.00
2018-12-19T12:21:01.115Z,5.10
2018-12-19T12:23:06.020Z,5.00
2018-12-19T12:25:11.753Z,5.10
2018-12-19T12:27:19.402Z,5.10
2018-12-19T12:29:25.273Z,5.00
2018-12-19T12:31:31.450Z,5.00
2018-12-19T12:33:37.898Z,5.00
2018-12-19T12:35:43.139Z,5.00
2018-12-19T12:37:49.006Z,5.00
2018-12-19T12:39:54.842Z,5.00
2018-12-19T12:42:00.131Z,5.00
2018-12-19T12:44:06.443Z,4.90
2018-12-19T12:46:16.106Z,5.00
2018-12-19T12:48:22.934Z,5.00
2018-12-19T12:50:33.956Z,5.00
2018-12-19T12:52:39.754Z,5.00
2018-12-19T12:54:46.927Z,5.00
2018-12-19T12:56:55.049Z,4.90
2018-12-19T12:59:00.738Z,4.80
2018-12-19T13:01:07.657Z,4.80
2018-12-19T13:03:13.842Z,5.00
2018-12-19T13:05:22.458Z,4.90
2018-12-19T13:07:28.073Z,4.80
2018-12-19T13:09:31.715Z,4.80
2018-12-19T13:11:36.431Z,4.90
2018-12-19T13:13:43.286Z,4.80
2018-12-19T13:15:50.089Z,4.70
2018-12-19T13:17:57.270Z,4.80
2018-12-19T13:20:03.599Z,4.70
2018-12-19T13:22:09.997Z,4.90
2018-12-19T13:24:16.044Z,4.80
2018-12-19T13:26:21.093Z,4.80
2018-12-19T13:28:26.378Z,4.60
2018-12-19T13:30:33.161Z,4.80
2018-12-19T13:32:38.393Z,4.80
2018-12-19T13:34:43.693Z,4.90
2018-12-19T13:36:50.597Z,4.70
2018-12-19T13:38:58.170Z,4.80
2018-12-19T13:41:04.585Z,4.80
2018-12-19T13:43:12.290Z,4.80
2018-12-19T13:45:18.428Z,4.80
2018-12-19T13:47:29.438Z,4.70
2018-12-19T13:49:35.662Z,4.60
2018-12-19T13:51:41.492Z,4.80
2018-12-19T13:53:48.398Z,4.70
2018-12-19T13:55:54.237Z,4.70
2018-12-19T13:58:06.909Z,4.70
2018-12-19T14:00:10.153Z,4.70
2018-12-19T14:02:17.262Z,4.80
2018-12-19T14:04:22.927Z,4.70
2018-12-19T14:06:29.328Z,4.60
2018-12-19T14:08:35.562Z,4.70
2018-12-19T14:10:45.825Z,4.80
2018-12-19T14:12:52.362Z,4.80
2018-12-19T14:14:59.209Z,4.70
2018-12-19T14:17:04.665Z,4.80
2018-12-19T14:19:11.626Z,4.70
2018-12-19T14:21:18.030Z,4.70
2018-12-19T14:23:25.482Z,4.70
2018-12-19T14:25:33.226Z,4.70
2018-12-19T14:27:40.654Z,4.70
2018-12-19T14:29:46.863Z,4.70
2018-12-19T14:31:52.685Z,4.70
2018-12-19T14:33:57.751Z,4.60
2018-12-19T14:36:02.671Z,4.70
2018-12-19T14:38:07.021Z,4.60
2018-12-19T14:40:13.509Z,4.70
2018-12-19T14:42:19.255Z,4.70
2018-12-19T14:44:25.865Z,4.70
2018-12-19T14:46:37.618Z,4.70
2018-12-19T14:48:44.042Z,4.50
2018-12-19T14:50:48.109Z,4.60
2018-12-19T14:52:55.184Z,4.70
2018-12-19T14:55:01.049Z,4.70
2018-12-19T14:57:07.914Z,4.70
2018-12-19T14:59:13.139Z,4.60
2018-12-19T15:01:17.949Z,4.70
2018-12-19T15:03:24.941Z,4.60
2018-12-19T15:05:31.654Z,4.70
2018-12-19T15:07:40.627Z,4.60
2018-12-19T15:09:47.065Z,4.60
2018-12-19T15:11:52.942Z,4.50
2018-12-19T15:14:03.163Z,4.70
2018-12-19T15:16:09.011Z,4.60
2018-12-19T15:20:34.082Z,4.60
2018-12-19T15:22:49.987Z,4.60
2018-12-19T15:25:01.514Z,4.60
2018-12-19T15:27:08.247Z,4.60
2018-12-19T15:29:18.361Z,4.50
2018-12-19T15:31:32.014Z,4.60
2018-12-19T15:33:38.761Z,4.70
2018-12-19T15:36:13.727Z,4.70
2018-12-19T15:38:33.697Z,4.60
2018-12-19T15:40:48.653Z,4.60
2018-12-19T15:43:10.257Z,4.40
2018-12-19T15:45:19.588Z,4.60
2018-12-19T15:47:24.676Z,4.60
2018-12-19T15:49:31.609Z,4.50
2018-12-19T15:51:37.637Z,4.60
2018-12-19T15:53:42.771Z,4.60
2018-12-19T15:55:51.644Z,4.60
2018-12-19T15:57:58.084Z,4.60
2018-12-19T16:00:05.542Z,4.50
2018-12-19T16:02:15.135Z,4.60
2018-12-19T16:04:20.969Z,4.60
2018-12-19T16:06:26.250Z,4.60
2018-12-19T16:08:31.618Z,4.60
2018-12-19T16:10:37.855Z,4.60
2018-12-19T16:12:43.822Z,4.60
2018-12-19T16:14:50.164Z,4.70
2018-12-19T16:16:58.861Z,4.50
2018-12-19T16:19:07.046Z,4.50
2018-12-19T16:21:13.965Z,4.50
2018-12-19T16:23:22.222Z,4.60
2018-12-19T16:25:34.005Z,4.60
2018-12-19T16:27:41.008Z,4.50
2018-12-19T16:29:48.107Z,4.60
2018-12-19T16:31:55.563Z,4.60
2018-12-19T16:34:03.030Z,4.60
2018-12-19T16:36:09.162Z,4.60
2018-12-19T16:38:18.454Z,4.50
2018-12-19T16:40:24.778Z,4.60
2018-12-19T16:42:29.476Z,4.60
2018-12-19T16:44:40.840Z,4.50
2018-12-19T16:46:48.146Z,4.60
2018-12-19T16:48:55.278Z,4.60
2018-12-19T16:51:05.043Z,4.60
2018-12-19T16:53:12.127Z,4.60
2018-12-19T16:55:19.832Z,4.60
2018-12-19T16:57:26.397Z,4.60
2018-12-19T16:59:30.772Z,4.60
2018-12-19T17:01:48.428Z,4.50
2018-12-19T17:03:55.479Z,4.50
2018-12-19T17:06:14.594Z,4.50
2018-12-19T17:08:26.861Z,4.60
2018-12-19T17:10:31.569Z,4.60
2018-12-19T17:12:38.857Z,4.50
2018-12-19T17:14:46.349Z,4.50
2018-12-19T17:16:54.248Z,4.60
2018-12-19T17:19:03.879Z,4.60
2018-12-19T17:21:10.762Z,4.50
2018-12-19T17:23:17.758Z,4.60
2018-12-19T17:25:24.054Z,4.50
2018-12-19T17:27:31.819Z,4.60
2018-12-19T17:29:39.862Z,4.60
2018-12-19T17:31:51.611Z,4.60
2018-12-19T17:33:59.310Z,4.60
2018-12-19T17:36:06.202Z,4.60
2018-12-19T17:38:14.929Z,4.60
2018-12-19T17:40:21.628Z,4.60
2018-12-19T17:42:28.682Z,4.60
2018-12-19T17:44:36.314Z,4.60
2018-12-19T17:46:43.562Z,4.60
2018-12-19T17:48:58.369Z,4.60
2018-12-19T17:51:19.618Z,4.60
2018-12-19T17:53:30.319Z,4.60
2018-12-19T17:55:41.296Z,4.60
2018-12-19T17:57:48.443Z,4.60
2018-12-19T17:59:59.024Z,4.60
2018-12-19T18:02:06.995Z,4.60
2018-12-19T18:04:15.119Z,4.50
2018-12-19T18:06:22.389Z,4.60
2018-12-19T18:08:31.215Z,4.60
2018-12-19T18:10:38.253Z,4.60
2018-12-19T18:12:45.585Z,4.40
2018-12-19T18:14:52.958Z,4.50
2018-12-19T18:17:08.582Z,4.60
2018-12-19T18:19:23.383Z,4.60
2018-12-19T18:21:35.808Z,4.50
2018-12-19T18:23:57.508Z,4.60
2018-12-19T18:26:15.693Z,4.50
2018-12-19T18:28:23.238Z,4.60
2018-12-19T18:30:41.604Z,4.50
2018-12-19T18:32:50.822Z,4.60
2018-12-19T18:35:01.987Z,4.60
2018-12-19T18:37:09.207Z,4.50
2018-12-19T18:39:17.357Z,4.50
2018-12-19T18:41:24.198Z,4.50
2018-12-19T18:43:32.820Z,4.50
2018-12-19T18:45:41.112Z,4.50
2018-12-19T18:47:49.909Z,4.50
2018-12-19T18:49:58.300Z,4.50
2018-12-19T18:52:11.766Z,4.50
2018-12-19T18:54:22.308Z,4.50
2018-12-19T18:56:30.141Z,4.40
2018-12-19T18:58:37.279Z,4.40
2018-12-19T19:00:46.507Z,4.50
2018-12-19T19:02:54.144Z,4.50
2018-12-19T19:05:01.159Z,4.40
2018-12-19T19:09:22.133Z,4.40
2018-12-19T19:11:29.740Z,4.40
2018-12-19T19:13:39.002Z,4.40
2018-12-19T19:15:46.138Z,4.30
2018-12-19T19:17:54.396Z,4.40
2018-12-19T19:20:01.408Z,4.30
2018-12-19T19:22:11.058Z,4.40
2018-12-19T19:24:18.414Z,4.20
2018-12-19T19:26:24.314Z,4.20
2018-12-19T19:28:33.554Z,4.30
2018-12-19T19:30:41.487Z,4.20
2018-12-19T19:32:48.912Z,4.20
2018-12-19T19:34:57.289Z,4.20
2018-12-19T19:37:05.375Z,4.20
2018-12-19T19:39:13.007Z,4.20
2018-12-19T19:41:20.395Z,4.20
2018-12-19T19:43:27.378Z,4.00
2018-12-19T19:45:35.596Z,4.10
2018-12-19T19:47:42.197Z,4.10
2018-12-19T19:49:50.899Z,4.00
2018-12-19T19:52:01.573Z,3.90
2018-12-19T19:54:09.284Z,4.10
2018-12-19T19:56:16.559Z,4.10
2018-12-19T19:58:23.285Z,4.00
2018-12-19T20:00:35.687Z,4.00
2018-12-19T20:02:42.654Z,3.90
2018-12-19T20:04:47.798Z,4.10
2018-12-19T20:06:59.359Z,4.00
2018-12-19T20:09:05.001Z,4.00
2018-12-19T20:11:14.528Z,4.10
2018-12-19T20:13:22.536Z,4.10
2018-12-19T20:15:28.954Z,4.10
2018-12-19T20:17:39.600Z,4.00
2018-12-19T20:19:44.811Z,4.10
2018-12-19T20:21:56.274Z,4.00
2018-12-19T20:24:02.109Z,4.00
2018-12-19T20:26:07.833Z,4.10
2018-12-19T20:28:12.878Z,4.10
2018-12-19T20:30:19.649Z,4.10
2018-12-19T20:32:28.029Z,4.00
2018-12-19T20:34:35.822Z,4.00
2018-12-19T20:36:41.582Z,4.00
2018-12-19T20:38:45.787Z,4.00
2018-12-19T20:40:52.055Z,4.10
2018-12-19T20:45:14.410Z,4.10
2018-12-19T20:47:24.522Z,4.20
2018-12-19T20:49:33.423Z,4.10
2018-12-19T20:51:41.731Z,4.10
2018-12-19T20:53:49.973Z,4.20
2018-12-19T20:56:03.708Z,4.20
2018-12-19T20:58:11.707Z,4.20
2018-12-19T21:00:20.530Z,4.10
2018-12-19T21:02:29.296Z,4.20
2018-12-19T21:04:39.502Z,4.20
2018-12-19T21:06:48.804Z,4.00
2018-12-19T21:08:57.820Z,4.20
2018-12-19T21:11:07.030Z,4.10
2018-12-19T21:13:19.651Z,4.10
2018-12-19T21:15:26.904Z,3.90
2018-12-19T21:17:36.254Z,4.00
2018-12-19T21:19:43.495Z,4.10
2018-12-19T21:21:55.300Z,4.10
2018-12-19T21:24:04.389Z,4.10
2018-12-19T21:26:12.041Z,4.20
2018-12-19T21:28:20.464Z,4.20
2018-12-19T21:30:28.882Z,4.20
2018-12-19T21:32:36.079Z,4.20
2018-12-19T21:34:44.022Z,4.20
2018-12-19T21:36:51.333Z,4.20
2018-12-19T21:38:56.399Z,4.20
2018-12-19T21:41:02.292Z,4.10
2018-12-19T21:43:11.947Z,4.20
2018-12-19T21:45:19.032Z,4.20
2018-12-19T21:47:26.607Z,4.20
2018-12-19T21:49:33.252Z,4.30
2018-12-19T21:51:41.004Z,4.20
2018-12-19T21:53:48.229Z,4.20
2018-12-19T21:55:55.544Z,4.30
2018-12-19T21:58:03.300Z,4.30
2018-12-19T22:00:13.209Z,4.40
2018-12-19T22:02:20.043Z,4.30
2018-12-19T22:04:37.253Z,4.40
2018-12-19T22:06:45.302Z,4.30
2018-12-19T22:08:52.160Z,4.30
2018-12-19T22:11:01.504Z,4.30
2018-12-19T22:13:09.717Z,4.40
2018-12-19T22:15:21.365Z,4.40
2018-12-19T22:17:33.053Z,4.40
2018-12-19T22:19:43.271Z,4.40
2018-12-19T22:21:50.654Z,4.40
2018-12-19T22:23:58.148Z,4.40
2018-12-19T22:26:10.981Z,4.40
2018-12-19T22:28:19.015Z,4.40
2018-12-19T22:30:28.880Z,4.40
2018-12-19T22:32:36.405Z,4.40
2018-12-19T22:34:42.866Z,4.40
2018-12-19T22:36:49.928Z,4.50
2018-12-19T22:38:56.801Z,4.50
2018-12-19T22:41:06.027Z,4.50
2018-12-19T22:43:11.888Z,4.50
2018-12-19T22:45:19.199Z,4.50
2018-12-19T22:47:26.136Z,4.50
2018-12-19T22:49:34.121Z,4.50
2018-12-19T22:51:41.290Z,4.50
2018-12-19T22:53:49.588Z,4.50
2018-12-19T22:55:56.290Z,4.50
2018-12-19T22:58:02.914Z,4.40
2018-12-19T23:00:16.496Z,4.40
2018-12-19T23:02:27.606Z,4.40
2018-12-19T23:04:32.410Z,4.50
2018-12-19T23:06:38.363Z,4.40
2018-12-19T23:08:48.946Z,4.40
2018-12-19T23:10:59.723Z,4.50
2018-12-19T23:13:08.020Z,4.40
2018-12-19T23:15:13.792Z,4.50
2018-12-19T23:17:23.663Z,4.50
2018-12-19T23:19:34.836Z,4.50
2018-12-19T23:21:46.713Z,4.50
2018-12-19T23:23:53.130Z,4.50
2018-12-19T23:25:59.544Z,4.50
2018-12-19T23:28:11.332Z,4.50
2018-12-19T23:30:22.817Z,4.60
2018-12-19T23:32:33.048Z,4.60
2018-12-19T23:34:40.570Z,4.50
2018-12-19T23:36:50.844Z,4.20
2018-12-19T23:38:57.674Z,4.50
2018-12-19T23:41:04.019Z,4.50
2018-12-19T23:43:09.689Z,4.60
2018-12-19T23:45:16.105Z,4.60
2018-12-19T23:47:20.837Z,4.50
2018-12-19T23:49:25.866Z,4.60
2018-12-19T23:51:31.757Z,4.60
2018-12-19T23:53:38.731Z,4.60
2018-12-19T23:55:45.001Z,4.80
2018-12-19T23:57:49.573Z,4.60
2018-12-19T23:59:54.331Z,4.60
